sensor_id;sensor_type;location;lat;lon;timestamp;P1;durP1;ratioP1;P2;durP2;ratioP2
49147;SDS011;41980;45.550;12.070;2023-03-05T00:02:54;60.88;;;42.97;;
49147;SDS011;41980;45.550;12.070;2023-03-05T00:14:58;51.17;;;36.27;;
49147;SDS011;41980;45.550;12.070;2023-03-05T00:21:00;59.80;;;42.47;;
49147;SDS011;41980;45.550;12.070;2023-03-05T00:33:04;45.17;;;30.48;;
49147;SDS011;41980;45.550;12.070;2023-03-05T00:39:06;41.58;;;30.48;;
49147;SDS011;41980;45.550;12.070;2023-03-05T00:51:10;45.70;;;31.03;;
49147;SDS011;41980;45.550;12.070;2023-03-05T00:57:12;59.90;;;39.28;;
49147;SDS011;41980;45.550;12.070;2023-03-05T01:09:17;49.58;;;34.58;;
49147;SDS011;41980;45.550;12.070;2023-03-05T01:21:20;49.80;;;30.73;;
49147;SDS011;41980;45.550;12.070;2023-03-05T01:27:22;31.15;;;20.33;;
49147;SDS011;41980;45.550;12.070;2023-03-05T01:33:24;29.13;;;20.58;;
49147;SDS011;41980;45.550;12.070;2023-03-05T01:39:26;38.53;;;24.85;;
49147;SDS011;41980;45.550;12.070;2023-03-05T01:51:35;33.50;;;24.75;;
49147;SDS011;41980;45.550;12.070;2023-03-05T01:57:43;39.17;;;26.15;;
49147;SDS011;41980;45.550;12.070;2023-03-05T02:03:47;50.10;;;32.10;;
49147;SDS011;41980;45.550;12.070;2023-03-05T02:09:50;40.70;;;26.67;;
49147;SDS011;41980;45.550;12.070;2023-03-05T02:27:59;50.00;;;34.45;;
49147;SDS011;41980;45.550;12.070;2023-03-05T02:34:03;40.28;;;27.38;;
49147;SDS011;41980;45.550;12.070;2023-03-05T02:40:06;38.55;;;26.27;;
49147;SDS011;41980;45.550;12.070;2023-03-05T02:46:09;32.60;;;22.15;;
49147;SDS011;41980;45.550;12.070;2023-03-05T02:52:13;27.65;;;18.23;;
49147;SDS011;41980;45.550;12.070;2023-03-05T02:58:15;29.27;;;20.25;;
49147;SDS011;41980;45.550;12.070;2023-03-05T03:04:17;24.83;;;16.92;;
49147;SDS011;41980;45.550;12.070;2023-03-05T03:10:19;58.60;;;42.28;;
49147;SDS011;41980;45.550;12.070;2023-03-05T03:16:21;45.80;;;33.40;;
49147;SDS011;41980;45.550;12.070;2023-03-05T03:22:23;38.95;;;27.40;;
49147;SDS011;41980;45.550;12.070;2023-03-05T03:28:25;35.42;;;24.60;;
49147;SDS011;41980;45.550;12.070;2023-03-05T03:34:27;33.05;;;23.50;;
49147;SDS011;41980;45.550;12.070;2023-03-05T03:40:29;35.42;;;23.17;;
49147;SDS011;41980;45.550;12.070;2023-03-05T03:46:31;23.50;;;15.40;;
49147;SDS011;41980;45.550;12.070;2023-03-05T03:52:33;35.38;;;22.33;;
49147;SDS011;41980;45.550;12.070;2023-03-05T03:58:35;32.45;;;20.73;;
49147;SDS011;41980;45.550;12.070;2023-03-05T04:10:39;27.08;;;19.25;;
49147;SDS011;41980;45.550;12.070;2023-03-05T04:16:41;29.35;;;19.92;;
49147;SDS011;41980;45.550;12.070;2023-03-05T04:22:43;37.50;;;25.50;;
49147;SDS011;41980;45.550;12.070;2023-03-05T04:28:45;25.48;;;17.95;;
49147;SDS011;41980;45.550;12.070;2023-03-05T04:34:48;26.77;;;19.20;;
49147;SDS011;41980;45.550;12.070;2023-03-05T04:46:52;35.03;;;22.00;;
49147;SDS011;41980;45.550;12.070;2023-03-05T04:52:54;25.92;;;16.10;;
49147;SDS011;41980;45.550;12.070;2023-03-05T05:04:58;21.65;;;14.85;;
49147;SDS011;41980;45.550;12.070;2023-03-05T05:11:01;21.67;;;14.55;;
49147;SDS011;41980;45.550;12.070;2023-03-05T05:17:06;17.70;;;12.38;;
49147;SDS011;41980;45.550;12.070;2023-03-05T05:23:07;22.00;;;12.93;;
49147;SDS011;41980;45.550;12.070;2023-03-05T05:29:09;15.60;;;9.10;;
49147;SDS011;41980;45.550;12.070;2023-03-05T05:35:11;13.32;;;8.88;;
49147;SDS011;41980;45.550;12.070;2023-03-05T05:47:16;11.90;;;7.43;;
49147;SDS011;41980;45.550;12.070;2023-03-05T05:53:19;13.05;;;8.55;;
49147;SDS011;41980;45.550;12.070;2023-03-05T05:59:20;13.20;;;7.95;;
49147;SDS011;41980;45.550;12.070;2023-03-05T06:11:24;14.07;;;8.85;;
49147;SDS011;41980;45.550;12.070;2023-03-05T06:23:28;15.38;;;10.23;;
49147;SDS011;41980;45.550;12.070;2023-03-05T06:29:30;15.63;;;9.50;;
49147;SDS011;41980;45.550;12.070;2023-03-05T06:35:32;13.52;;;8.02;;
49147;SDS011;41980;45.550;12.070;2023-03-05T06:47:36;12.32;;;7.30;;
49147;SDS011;41980;45.550;12.070;2023-03-05T06:53:37;11.27;;;6.20;;
49147;SDS011;41980;45.550;12.070;2023-03-05T06:59:39;12.20;;;7.78;;
49147;SDS011;41980;45.550;12.070;2023-03-05T07:05:41;13.20;;;9.05;;
49147;SDS011;41980;45.550;12.070;2023-03-05T07:11:44;14.13;;;9.45;;
49147;SDS011;41980;45.550;12.070;2023-03-05T07:23:47;9.63;;;6.72;;
49147;SDS011;41980;45.550;12.070;2023-03-05T07:29:49;7.75;;;5.72;;
49147;SDS011;41980;45.550;12.070;2023-03-05T07:35:51;9.30;;;6.72;;
49147;SDS011;41980;45.550;12.070;2023-03-05T07:41:53;7.82;;;5.70;;
49147;SDS011;41980;45.550;12.070;2023-03-05T07:48:03;8.80;;;6.57;;
49147;SDS011;41980;45.550;12.070;2023-03-05T07:54:05;11.57;;;8.23;;
49147;SDS011;41980;45.550;12.070;2023-03-05T08:00:08;11.20;;;6.85;;
49147;SDS011;41980;45.550;12.070;2023-03-05T08:06:14;15.90;;;10.07;;
49147;SDS011;41980;45.550;12.070;2023-03-05T08:12:16;18.75;;;10.85;;
49147;SDS011;41980;45.550;12.070;2023-03-05T08:18:18;17.85;;;11.43;;
49147;SDS011;41980;45.550;12.070;2023-03-05T08:24:20;13.55;;;7.80;;
49147;SDS011;41980;45.550;12.070;2023-03-05T08:30:23;13.30;;;7.25;;
49147;SDS011;41980;45.550;12.070;2023-03-05T08:36:27;10.40;;;6.13;;
49147;SDS011;41980;45.550;12.070;2023-03-05T08:42:30;9.77;;;5.57;;
49147;SDS011;41980;45.550;12.070;2023-03-05T08:48:32;12.07;;;8.48;;
49147;SDS011;41980;45.550;12.070;2023-03-05T08:54:35;12.13;;;7.70;;
49147;SDS011;41980;45.550;12.070;2023-03-05T09:00:38;15.88;;;10.20;;
49147;SDS011;41980;45.550;12.070;2023-03-05T09:12:41;17.42;;;11.90;;
49147;SDS011;41980;45.550;12.070;2023-03-05T09:24:45;12.43;;;7.37;;
49147;SDS011;41980;45.550;12.070;2023-03-05T09:30:47;9.48;;;6.95;;
49147;SDS011;41980;45.550;12.070;2023-03-05T09:36:49;11.93;;;7.85;;
49147;SDS011;41980;45.550;12.070;2023-03-05T09:49:00;12.85;;;8.43;;
49147;SDS011;41980;45.550;12.070;2023-03-05T09:55:09;11.30;;;7.72;;
49147;SDS011;41980;45.550;12.070;2023-03-05T10:01:19;10.80;;;7.53;;
49147;SDS011;41980;45.550;12.070;2023-03-05T10:13:36;12.90;;;9.23;;
49147;SDS011;41980;45.550;12.070;2023-03-05T10:44:15;25.05;;;16.63;;
49147;SDS011;41980;45.550;12.070;2023-03-05T10:50:25;15.48;;;10.82;;
49147;SDS011;41980;45.550;12.070;2023-03-05T10:56:33;17.55;;;11.48;;
49147;SDS011;41980;45.550;12.070;2023-03-05T11:02:51;14.00;;;9.63;;
49147;SDS011;41980;45.550;12.070;2023-03-05T11:09:13;13.80;;;10.55;;
49147;SDS011;41980;45.550;12.070;2023-03-05T11:15:22;17.30;;;11.57;;
49147;SDS011;41980;45.550;12.070;2023-03-05T11:21:28;19.95;;;13.60;;
49147;SDS011;41980;45.550;12.070;2023-03-05T11:27:34;16.92;;;11.93;;
49147;SDS011;41980;45.550;12.070;2023-03-05T11:33:39;29.52;;;22.30;;
49147;SDS011;41980;45.550;12.070;2023-03-05T11:46:06;24.90;;;19.33;;
49147;SDS011;41980;45.550;12.070;2023-03-05T12:04:28;31.05;;;21.98;;
49147;SDS011;41980;45.550;12.070;2023-03-05T12:10:33;17.23;;;12.68;;
49147;SDS011;41980;45.550;12.070;2023-03-05T12:22:43;16.70;;;11.85;;
49147;SDS011;41980;45.550;12.070;2023-03-05T12:53:12;15.20;;;11.15;;
49147;SDS011;41980;45.550;12.070;2023-03-05T12:59:17;30.33;;;22.33;;
49147;SDS011;41980;45.550;12.070;2023-03-05T13:11:31;21.35;;;16.08;;
49147;SDS011;41980;45.550;12.070;2023-03-05T13:17:40;22.95;;;15.90;;
49147;SDS011;41980;45.550;12.070;2023-03-05T13:29:58;30.48;;;23.80;;
49147;SDS011;41980;45.550;12.070;2023-03-05T13:36:01;16.98;;;12.30;;
49147;SDS011;41980;45.550;12.070;2023-03-05T13:42:05;14.45;;;10.88;;
49147;SDS011;41980;45.550;12.070;2023-03-05T13:48:17;18.13;;;13.73;;
49147;SDS011;41980;45.550;12.070;2023-03-05T13:54:20;24.42;;;18.25;;
49147;SDS011;41980;45.550;12.070;2023-03-05T14:00:27;22.67;;;18.88;;
49147;SDS011;41980;45.550;12.070;2023-03-05T14:06:33;21.00;;;15.98;;
49147;SDS011;41980;45.550;12.070;2023-03-05T14:12:42;21.75;;;16.42;;
49147;SDS011;41980;45.550;12.070;2023-03-05T14:24:53;26.48;;;19.15;;
49147;SDS011;41980;45.550;12.070;2023-03-05T14:30:55;22.60;;;17.95;;
49147;SDS011;41980;45.550;12.070;2023-03-05T14:36:59;31.63;;;22.92;;
49147;SDS011;41980;45.550;12.070;2023-03-05T14:43:05;28.65;;;22.25;;
49147;SDS011;41980;45.550;12.070;2023-03-05T14:49:11;33.33;;;24.83;;
49147;SDS011;41980;45.550;12.070;2023-03-05T14:55:14;24.10;;;17.90;;
49147;SDS011;41980;45.550;12.070;2023-03-05T15:01:18;27.98;;;20.98;;
49147;SDS011;41980;45.550;12.070;2023-03-05T15:07:22;21.35;;;16.90;;
49147;SDS011;41980;45.550;12.070;2023-03-05T15:13:29;19.83;;;15.52;;
49147;SDS011;41980;45.550;12.070;2023-03-05T15:19:32;30.95;;;22.65;;
49147;SDS011;41980;45.550;12.070;2023-03-05T15:25:33;20.83;;;16.42;;
49147;SDS011;41980;45.550;12.070;2023-03-05T15:31:36;15.90;;;12.73;;
49147;SDS011;41980;45.550;12.070;2023-03-05T15:37:40;23.95;;;17.60;;
49147;SDS011;41980;45.550;12.070;2023-03-05T15:43:42;22.13;;;14.90;;
49147;SDS011;41980;45.550;12.070;2023-03-05T15:49:44;19.08;;;13.63;;
49147;SDS011;41980;45.550;12.070;2023-03-05T15:55:46;23.80;;;15.52;;
49147;SDS011;41980;45.550;12.070;2023-03-05T16:01:49;28.75;;;20.40;;
49147;SDS011;41980;45.550;12.070;2023-03-05T16:07:52;33.28;;;26.38;;
49147;SDS011;41980;45.550;12.070;2023-03-05T16:13:55;33.15;;;25.83;;
49147;SDS011;41980;45.550;12.070;2023-03-05T16:19:59;27.23;;;20.83;;
49147;SDS011;41980;45.550;12.070;2023-03-05T16:26:01;25.98;;;16.80;;
49147;SDS011;41980;45.550;12.070;2023-03-05T16:32:03;22.75;;;15.88;;
49147;SDS011;41980;45.550;12.070;2023-03-05T16:38:06;18.38;;;13.52;;
49147;SDS011;41980;45.550;12.070;2023-03-05T16:44:08;22.48;;;14.95;;
49147;SDS011;41980;45.550;12.070;2023-03-05T16:50:11;22.05;;;16.27;;
49147;SDS011;41980;45.550;12.070;2023-03-05T16:56:13;20.52;;;14.27;;
49147;SDS011;41980;45.550;12.070;2023-03-05T17:02:16;15.57;;;11.40;;
49147;SDS011;41980;45.550;12.070;2023-03-05T17:08:19;14.05;;;10.05;;
49147;SDS011;41980;45.550;12.070;2023-03-05T17:14:21;16.83;;;12.13;;
49147;SDS011;41980;45.550;12.070;2023-03-05T17:20:23;16.58;;;12.05;;
49147;SDS011;41980;45.550;12.070;2023-03-05T17:26:25;24.45;;;17.65;;
49147;SDS011;41980;45.550;12.070;2023-03-05T17:32:27;15.60;;;11.52;;
49147;SDS011;41980;45.550;12.070;2023-03-05T17:38:30;22.65;;;15.48;;
49147;SDS011;41980;45.550;12.070;2023-03-05T17:44:32;24.92;;;17.50;;
49147;SDS011;41980;45.550;12.070;2023-03-05T17:50:34;19.67;;;14.00;;
49147;SDS011;41980;45.550;12.070;2023-03-05T17:56:36;18.15;;;13.50;;
49147;SDS011;41980;45.550;12.070;2023-03-05T18:02:39;21.38;;;15.50;;
49147;SDS011;41980;45.550;12.070;2023-03-05T18:08:41;19.90;;;15.00;;
49147;SDS011;41980;45.550;12.070;2023-03-05T18:14:43;19.23;;;12.98;;
49147;SDS011;41980;45.550;12.070;2023-03-05T18:20:45;21.35;;;15.57;;
49147;SDS011;41980;45.550;12.070;2023-03-05T18:26:48;22.27;;;15.85;;
49147;SDS011;41980;45.550;12.070;2023-03-05T18:38:52;24.05;;;15.07;;
49147;SDS011;41980;45.550;12.070;2023-03-05T18:44:56;18.25;;;12.73;;
49147;SDS011;41980;45.550;12.070;2023-03-05T18:50:59;17.92;;;12.15;;
49147;SDS011;41980;45.550;12.070;2023-03-05T19:03:03;14.85;;;9.77;;
49147;SDS011;41980;45.550;12.070;2023-03-05T19:15:22;15.30;;;9.77;;
49147;SDS011;41980;45.550;12.070;2023-03-05T19:21:24;14.35;;;8.80;;
49147;SDS011;41980;45.550;12.070;2023-03-05T19:27:26;12.10;;;8.07;;
49147;SDS011;41980;45.550;12.070;2023-03-05T19:33:28;15.38;;;9.88;;
49147;SDS011;41980;45.550;12.070;2023-03-05T19:39:30;14.43;;;9.85;;
49147;SDS011;41980;45.550;12.070;2023-03-05T19:45:33;18.50;;;11.50;;
49147;SDS011;41980;45.550;12.070;2023-03-05T19:51:35;22.15;;;14.18;;
49147;SDS011;41980;45.550;12.070;2023-03-05T19:57:40;23.38;;;15.25;;
49147;SDS011;41980;45.550;12.070;2023-03-05T20:09:44;20.17;;;13.27;;
49147;SDS011;41980;45.550;12.070;2023-03-05T20:15:46;21.27;;;12.32;;
49147;SDS011;41980;45.550;12.070;2023-03-05T20:21:48;14.88;;;9.27;;
49147;SDS011;41980;45.550;12.070;2023-03-05T20:27:50;16.33;;;10.65;;
49147;SDS011;41980;45.550;12.070;2023-03-05T20:33:53;19.40;;;12.85;;
49147;SDS011;41980;45.550;12.070;2023-03-05T20:39:56;13.15;;;8.70;;
49147;SDS011;41980;45.550;12.070;2023-03-05T20:45:58;13.48;;;7.93;;
49147;SDS011;41980;45.550;12.070;2023-03-05T20:52:01;26.83;;;15.98;;
49147;SDS011;41980;45.550;12.070;2023-03-05T21:04:04;24.70;;;14.25;;
49147;SDS011;41980;45.550;12.070;2023-03-05T21:10:07;24.60;;;15.77;;
49147;SDS011;41980;45.550;12.070;2023-03-05T21:16:12;37.33;;;22.42;;
49147;SDS011;41980;45.550;12.070;2023-03-05T21:22:17;22.42;;;13.90;;
49147;SDS011;41980;45.550;12.070;2023-03-05T21:40:24;22.63;;;13.63;;
49147;SDS011;41980;45.550;12.070;2023-03-05T21:46:26;26.02;;;18.00;;
49147;SDS011;41980;45.550;12.070;2023-03-05T21:52:29;25.48;;;17.98;;
49147;SDS011;41980;45.550;12.070;2023-03-05T21:58:32;29.65;;;20.92;;
49147;SDS011;41980;45.550;12.070;2023-03-05T22:04:35;33.45;;;23.05;;
49147;SDS011;41980;45.550;12.070;2023-03-05T22:10:38;36.55;;;23.27;;
49147;SDS011;41980;45.550;12.070;2023-03-05T22:16:41;28.88;;;19.92;;
49147;SDS011;41980;45.550;12.070;2023-03-05T22:22:43;31.83;;;20.23;;
49147;SDS011;41980;45.550;12.070;2023-03-05T22:28:45;29.25;;;18.30;;
49147;SDS011;41980;45.550;12.070;2023-03-05T22:40:48;27.95;;;17.38;;
49147;SDS011;41980;45.550;12.070;2023-03-05T22:46:50;37.05;;;24.92;;
49147;SDS011;41980;45.550;12.070;2023-03-05T22:52:53;24.45;;;16.85;;
49147;SDS011;41980;45.550;12.070;2023-03-05T22:58:55;28.30;;;19.08;;
49147;SDS011;41980;45.550;12.070;2023-03-05T23:04:57;30.17;;;21.13;;
49147;SDS011;41980;45.550;12.070;2023-03-05T23:11:05;36.92;;;23.65;;
49147;SDS011;41980;45.550;12.070;2023-03-05T23:17:09;40.28;;;26.73;;
49147;SDS011;41980;45.550;12.070;2023-03-05T23:35:39;24.05;;;16.33;;
49147;SDS011;41980;45.550;12.070;2023-03-05T23:41:43;28.65;;;18.63;;
49147;SDS011;41980;45.550;12.070;2023-03-05T23:59:50;43.20;;;26.58;;
